createdAt,value
2019-01-20T00:01:26.370Z,10.57
2019-01-20T00:03:55.795Z,15.33
2019-01-20T00:06:25.211Z,10.97
2019-01-20T00:09:13.866Z,6.13
2019-01-20T00:12:02.676Z,7.87
2019-01-20T00:14:32.226Z,8.10
2019-01-20T00:17:01.639Z,7.77
2019-01-20T00:19:31.028Z,9.13
2019-01-20T00:22:00.472Z,7.80
2019-01-20T00:24:29.935Z,11.23
2019-01-20T00:26:59.342Z,6.73
2019-01-20T00:29:41.338Z,6.87
2019-01-20T00:32:10.744Z,7.77
2019-01-20T00:34:40.151Z,6.23
2019-01-20T00:37:09.590Z,5.87
2019-01-20T00:39:39.083Z,7.87
2019-01-20T00:42:08.571Z,8.00
2019-01-20T00:44:38.005Z,7.10
2019-01-20T00:47:07.444Z,7.63
2019-01-20T00:49:36.882Z,8.00
2019-01-20T00:52:06.382Z,5.87
2019-01-20T00:54:38.651Z,6.57
2019-01-20T00:57:27.456Z,8.17
2019-01-20T00:59:56.914Z,8.03
2019-01-20T01:02:26.420Z,7.40
2019-01-20T01:05:09.094Z,6.80
2019-01-20T01:07:57.947Z,6.97
2019-01-20T01:10:27.551Z,10.90
2019-01-20T01:12:59.245Z,6.27
2019-01-20T01:15:28.814Z,5.77
2019-01-20T01:18:06.992Z,7.23
2019-01-20T01:20:36.432Z,6.37
2019-01-20T01:23:07.439Z,5.93
2019-01-20T01:25:37.015Z,6.90
2019-01-20T01:28:06.542Z,9.10
2019-01-20T01:30:35.956Z,8.50
2019-01-20T01:33:05.556Z,8.20
2019-01-20T01:35:36.881Z,10.30
2019-01-20T01:38:07.922Z,7.13
2019-01-20T01:40:37.337Z,7.27
2019-01-20T01:43:06.826Z,8.13
2019-01-20T01:45:42.634Z,8.10
2019-01-20T01:48:12.066Z,7.60
2019-01-20T01:50:41.541Z,7.90
2019-01-20T01:53:10.972Z,7.27
2019-01-20T01:55:40.437Z,6.50
2019-01-20T01:58:09.907Z,5.87
2019-01-20T02:00:58.806Z,10.97
2019-01-20T02:03:29.562Z,6.17
2019-01-20T02:05:58.981Z,7.73
2019-01-20T02:08:28.553Z,8.37
2019-01-20T02:10:58.239Z,8.13
2019-01-20T02:13:27.776Z,7.63
2019-01-20T02:15:57.238Z,6.87
2019-01-20T02:18:26.676Z,6.47
2019-01-20T02:20:56.183Z,7.07
2019-01-20T02:23:25.649Z,8.83
2019-01-20T02:25:55.103Z,6.67
2019-01-20T02:28:24.557Z,8.30
2019-01-20T02:31:06.617Z,7.67
2019-01-20T02:33:36.089Z,7.90
2019-01-20T02:36:05.523Z,5.90
2019-01-20T02:38:54.331Z,7.43
2019-01-20T02:41:37.014Z,5.93
2019-01-20T02:44:06.446Z,6.50
2019-01-20T02:46:35.967Z,7.57
2019-01-20T02:49:05.458Z,16.10
2019-01-20T02:51:34.871Z,10.17
2019-01-20T02:54:17.220Z,8.47
2019-01-20T02:56:59.788Z,7.57
2019-01-20T02:59:34.049Z,9.00
2019-01-20T03:02:03.538Z,7.87
2019-01-20T03:04:37.721Z,9.27
2019-01-20T03:07:08.184Z,8.87
2019-01-20T03:09:37.708Z,10.63
2019-01-20T03:12:07.117Z,8.10
2019-01-20T03:14:36.605Z,10.27
2019-01-20T03:17:25.523Z,8.43
2019-01-20T03:19:54.891Z,10.53
2019-01-20T03:22:24.419Z,14.70
2019-01-20T03:24:55.489Z,7.97
2019-01-20T03:27:24.976Z,11.33
2019-01-20T03:29:54.418Z,7.23
2019-01-20T03:32:23.850Z,7.87
2019-01-20T03:34:53.703Z,6.83
2019-01-20T03:37:23.196Z,9.73
2019-01-20T03:39:52.597Z,7.60
2019-01-20T03:42:35.109Z,8.40
2019-01-20T03:45:07.597Z,7.17
2019-01-20T03:47:37.045Z,7.63
2019-01-20T03:50:09.020Z,9.63
2019-01-20T03:52:38.831Z,7.20
2019-01-20T03:55:11.100Z,7.83
2019-01-20T03:57:40.677Z,7.37
2019-01-20T04:00:29.485Z,6.27
2019-01-20T04:03:00.293Z,7.30
2019-01-20T04:05:30.032Z,13.77
2019-01-20T04:07:59.462Z,9.63
2019-01-20T04:10:28.925Z,9.60
2019-01-20T04:12:58.348Z,10.43
2019-01-20T04:15:47.165Z,8.93
2019-01-20T04:18:31.485Z,9.10
2019-01-20T04:21:20.331Z,7.10
2019-01-20T04:24:02.789Z,7.90
2019-01-20T04:26:32.308Z,8.03
2019-01-20T04:29:01.756Z,10.90
2019-01-20T04:31:31.211Z,7.97
2019-01-20T04:34:03.073Z,8.33
2019-01-20T04:36:32.526Z,9.10
2019-01-20T04:39:01.940Z,7.07
2019-01-20T04:41:31.437Z,8.80
2019-01-20T04:44:00.939Z,7.87
2019-01-20T04:46:30.353Z,7.67
2019-01-20T04:49:21.891Z,8.60
2019-01-20T04:51:51.322Z,8.23
2019-01-20T04:54:20.788Z,9.07
2019-01-20T04:56:50.304Z,7.20
2019-01-20T04:59:21.299Z,5.43
2019-01-20T05:01:50.784Z,6.07
2019-01-20T05:04:20.235Z,7.33
2019-01-20T05:06:51.334Z,6.53
2019-01-20T05:09:20.779Z,7.33
2019-01-20T05:11:50.190Z,8.63
2019-01-20T05:14:19.724Z,8.20
2019-01-20T05:17:01.625Z,9.10
2019-01-20T05:19:31.052Z,8.00
2019-01-20T05:22:00.542Z,8.93
2019-01-20T05:24:30.039Z,7.60
2019-01-20T05:26:59.447Z,8.03
2019-01-20T05:29:28.896Z,7.33
2019-01-20T05:31:58.317Z,8.33
2019-01-20T05:34:47.145Z,8.97
2019-01-20T05:37:16.583Z,8.10
2019-01-20T05:39:46.380Z,7.40
2019-01-20T05:42:15.834Z,9.07
2019-01-20T05:44:51.502Z,8.83
2019-01-20T05:47:21.757Z,7.20
2019-01-20T05:49:51.296Z,8.87
2019-01-20T05:52:20.691Z,10.37
2019-01-20T05:54:50.129Z,8.17
2019-01-20T05:57:20.636Z,8.23
2019-01-20T05:59:50.175Z,9.20
2019-01-20T06:02:19.646Z,9.30
2019-01-20T06:04:49.043Z,9.30
2019-01-20T06:07:18.600Z,10.40
2019-01-20T06:09:48.063Z,9.60
2019-01-20T06:12:17.691Z,9.67
2019-01-20T06:14:47.168Z,10.10
2019-01-20T06:17:19.504Z,9.30
2019-01-20T06:19:48.963Z,8.40
2019-01-20T06:22:18.500Z,11.20
2019-01-20T06:24:47.963Z,11.33
2019-01-20T06:27:17.387Z,9.20
2019-01-20T06:29:46.845Z,10.27
2019-01-20T06:32:16.297Z,9.57
2019-01-20T06:34:45.740Z,9.13
2019-01-20T06:37:20.003Z,11.83
2019-01-20T06:39:50.139Z,9.80
2019-01-20T06:42:38.989Z,12.53
2019-01-20T06:45:13.376Z,10.97
2019-01-20T06:47:42.813Z,13.30
2019-01-20T06:50:14.515Z,14.03
2019-01-20T06:52:43.983Z,12.60
2019-01-20T06:55:13.835Z,12.17
2019-01-20T06:57:43.247Z,8.97
2019-01-20T07:00:19.534Z,12.10
2019-01-20T07:02:49.894Z,11.97
2019-01-20T07:05:19.340Z,10.90
2019-01-20T07:07:50.225Z,8.43
2019-01-20T07:10:19.690Z,11.53
2019-01-20T07:12:49.158Z,13.43
2019-01-20T07:15:20.292Z,12.10
2019-01-20T07:18:09.188Z,11.63
2019-01-20T07:20:38.712Z,9.80
2019-01-20T07:23:08.152Z,12.33
2019-01-20T07:25:37.665Z,12.33
2019-01-20T07:28:07.087Z,12.00
2019-01-20T07:30:38.176Z,11.77
2019-01-20T07:33:08.170Z,11.30
2019-01-20T07:35:37.647Z,10.93
2019-01-20T07:38:07.081Z,12.53
2019-01-20T07:40:49.975Z,11.97
2019-01-20T07:43:19.401Z,11.87
2019-01-20T07:45:48.937Z,11.40
2019-01-20T07:48:19.485Z,11.57
2019-01-20T07:50:48.939Z,12.23
2019-01-20T07:53:18.425Z,14.53
2019-01-20T07:55:50.945Z,14.57
2019-01-20T07:58:20.511Z,11.30
2019-01-20T08:01:07.946Z,12.47
2019-01-20T08:03:56.790Z,12.70
2019-01-20T08:06:26.212Z,14.27
2019-01-20T08:08:55.832Z,11.70
2019-01-20T08:11:25.342Z,13.63
2019-01-20T08:14:14.186Z,14.00
2019-01-20T08:16:43.671Z,10.93
2019-01-20T08:19:13.118Z,11.13
2019-01-20T08:21:42.684Z,11.63
2019-01-20T08:24:31.581Z,14.37
2019-01-20T08:27:04.185Z,12.47
2019-01-20T08:29:33.687Z,15.63
2019-01-20T08:32:03.156Z,11.70
2019-01-20T08:34:32.573Z,14.40
2019-01-20T08:37:02.011Z,12.37
2019-01-20T08:39:31.480Z,13.83
2019-01-20T08:42:00.910Z,10.93
2019-01-20T08:44:35.246Z,13.53
2019-01-20T08:47:07.615Z,13.90
2019-01-20T08:49:37.375Z,12.77
2019-01-20T08:52:06.914Z,13.07
2019-01-20T08:54:49.761Z,11.90
2019-01-20T08:57:22.083Z,10.77
2019-01-20T09:00:06.435Z,12.57
2019-01-20T09:02:36.234Z,12.77
2019-01-20T09:05:06.365Z,14.13
2019-01-20T09:07:55.247Z,12.17
2019-01-20T09:10:25.950Z,15.47
2019-01-20T09:12:56.328Z,14.90
2019-01-20T09:15:39.218Z,11.90
2019-01-20T09:18:28.900Z,13.63
2019-01-20T09:21:00.068Z,15.07
2019-01-20T09:23:29.494Z,13.90
2019-01-20T09:25:58.940Z,15.23
2019-01-20T09:28:28.397Z,14.83
2019-01-20T09:31:02.244Z,14.30
2019-01-20T09:33:31.749Z,14.37
2019-01-20T09:36:01.192Z,16.83
2019-01-20T09:38:30.612Z,15.40
2019-01-20T09:41:00.060Z,17.27
2019-01-20T09:43:47.090Z,15.57
2019-01-20T09:46:33.537Z,14.90
2019-01-20T09:49:05.367Z,14.60
2019-01-20T09:51:35.501Z,15.23
2019-01-20T09:54:05.071Z,14.77
2019-01-20T09:56:34.579Z,13.43
2019-01-20T09:59:04.141Z,13.83
2019-01-20T10:01:33.640Z,13.00
2019-01-20T10:04:03.017Z,14.50
2019-01-20T10:06:35.427Z,14.27
2019-01-20T10:09:07.125Z,14.57
2019-01-20T10:11:36.840Z,12.67
2019-01-20T10:14:06.307Z,13.43
2019-01-20T10:16:35.789Z,14.00
2019-01-20T10:19:05.208Z,13.30
2019-01-20T10:21:34.740Z,11.63
2019-01-20T10:24:04.209Z,14.67
2019-01-20T10:26:38.008Z,12.17
2019-01-20T10:29:07.567Z,15.27
2019-01-20T10:31:37.076Z,14.83
2019-01-20T10:34:19.721Z,11.20
2019-01-20T10:36:52.283Z,17.43
2019-01-20T10:39:23.312Z,13.10
2019-01-20T10:41:53.534Z,14.83
2019-01-20T10:44:23.088Z,12.67
2019-01-20T10:46:52.720Z,12.83
2019-01-20T10:49:22.154Z,12.30
2019-01-20T10:51:51.685Z,13.90
2019-01-20T10:54:21.939Z,13.43
2019-01-20T10:56:54.479Z,13.30
2019-01-20T10:59:24.260Z,14.87
2019-01-20T11:01:53.695Z,17.10
2019-01-20T11:04:23.159Z,13.13
2019-01-20T11:06:52.542Z,13.67
2019-01-20T11:09:21.972Z,14.83
2019-01-20T11:11:51.559Z,14.60
2019-01-20T11:14:20.987Z,14.33
2019-01-20T11:16:50.444Z,13.03
2019-01-20T11:19:19.886Z,13.47
2019-01-20T11:22:02.814Z,14.73
2019-01-20T11:24:32.230Z,15.13
2019-01-20T11:27:01.668Z,14.40
2019-01-20T11:29:36.036Z,13.47
2019-01-20T11:32:24.955Z,14.03
2019-01-20T11:35:10.733Z,16.97
2019-01-20T11:37:40.215Z,16.80
2019-01-20T11:40:29.022Z,15.10
2019-01-20T11:42:58.462Z,16.83
2019-01-20T11:45:29.736Z,15.80
2019-01-20T11:47:59.209Z,19.10
2019-01-20T11:50:28.822Z,14.93
2019-01-20T11:52:58.231Z,18.23
2019-01-20T11:55:28.499Z,15.57
2019-01-20T11:57:59.598Z,14.40
2019-01-20T12:00:42.206Z,14.70
2019-01-20T12:03:11.724Z,14.53
2019-01-20T12:06:00.532Z,15.57
2019-01-20T12:08:30.684Z,12.97
2019-01-20T12:11:03.399Z,13.77
2019-01-20T12:13:33.517Z,15.33
2019-01-20T12:16:02.947Z,15.03
2019-01-20T12:18:32.361Z,14.27
2019-01-20T12:21:01.804Z,14.23
2019-01-20T12:23:31.277Z,13.40
2019-01-20T12:26:00.777Z,13.17
2019-01-20T12:28:30.254Z,15.67
2019-01-20T12:30:59.690Z,15.80
2019-01-20T12:33:29.218Z,15.87
2019-01-20T12:36:18.425Z,14.60
2019-01-20T12:38:47.895Z,14.60
2019-01-20T12:41:17.382Z,14.93
2019-01-20T12:43:51.679Z,14.53
2019-01-20T12:46:21.156Z,14.67
2019-01-20T12:48:50.544Z,15.33
2019-01-20T12:51:19.984Z,14.23
2019-01-20T12:53:49.411Z,15.10
2019-01-20T12:56:32.121Z,16.63
2019-01-20T12:59:01.646Z,14.20
2019-01-20T13:01:31.069Z,14.77
2019-01-20T13:04:00.477Z,13.83
2019-01-20T13:06:30.015Z,12.37
2019-01-20T13:08:59.511Z,14.97
2019-01-20T13:11:28.930Z,14.83
2019-01-20T13:13:58.633Z,14.70
2019-01-20T13:16:28.083Z,14.50
2019-01-20T13:18:57.576Z,12.03
2019-01-20T13:21:29.963Z,13.10
2019-01-20T13:23:59.378Z,13.20
2019-01-20T13:26:28.919Z,14.00
2019-01-20T13:28:58.552Z,12.93
2019-01-20T13:31:27.952Z,14.80
2019-01-20T13:33:57.396Z,14.40
2019-01-20T13:36:26.809Z,15.27
2019-01-20T13:38:57.853Z,15.53
2019-01-20T13:41:40.150Z,13.47
2019-01-20T13:44:09.570Z,12.10
2019-01-20T13:46:39.018Z,13.00
2019-01-20T13:49:13.386Z,12.40
2019-01-20T13:51:47.712Z,13.60
2019-01-20T13:54:17.100Z,14.67
2019-01-20T13:56:46.558Z,16.10
2019-01-20T13:59:17.181Z,15.50
2019-01-20T14:01:46.675Z,11.80
2019-01-20T14:04:20.858Z,11.67
2019-01-20T14:06:50.362Z,13.00
2019-01-20T14:09:19.773Z,10.43
2019-01-20T14:11:49.278Z,12.63
2019-01-20T14:14:18.884Z,9.93
2019-01-20T14:16:48.347Z,17.63
2019-01-20T14:19:21.703Z,11.40
2019-01-20T14:21:48.938Z,11.90
2019-01-20T14:24:23.234Z,13.87
2019-01-20T14:26:52.656Z,15.23
2019-01-20T14:29:22.064Z,15.67
2019-01-20T14:31:51.464Z,11.40
2019-01-20T14:34:21.119Z,9.27
2019-01-20T14:36:50.543Z,10.47
2019-01-20T14:39:19.981Z,10.23
2019-01-20T14:41:49.399Z,10.50
2019-01-20T14:44:21.760Z,13.37
2019-01-20T14:46:51.206Z,9.93
2019-01-20T14:49:20.604Z,11.60
2019-01-20T14:51:50.023Z,10.23
2019-01-20T14:54:24.298Z,11.73
2019-01-20T14:56:53.765Z,12.37
2019-01-20T14:59:26.149Z,13.00
2019-01-20T15:01:55.624Z,14.03
2019-01-20T15:04:25.060Z,13.87
2019-01-20T15:06:54.494Z,12.67
2019-01-20T15:09:23.907Z,12.17
2019-01-20T15:11:53.339Z,11.80
2019-01-20T15:14:25.639Z,11.97
2019-01-20T15:16:55.149Z,12.83
2019-01-20T15:19:24.726Z,11.00
2019-01-20T15:21:54.202Z,10.77
2019-01-20T15:24:25.085Z,11.83
2019-01-20T15:26:54.549Z,13.93
2019-01-20T15:29:23.958Z,13.13
2019-01-20T15:31:56.022Z,13.67
2019-01-20T15:34:24.559Z,11.87
2019-01-20T15:36:53.994Z,12.17
2019-01-20T15:39:23.401Z,12.50
2019-01-20T15:41:52.879Z,16.00
2019-01-20T15:44:27.128Z,11.83
2019-01-20T15:46:56.593Z,11.70
2019-01-20T15:49:26.045Z,11.93
2019-01-20T15:51:55.507Z,12.13
2019-01-20T15:54:24.981Z,13.27
2019-01-20T15:56:54.435Z,11.40
2019-01-20T15:59:23.933Z,14.00
2019-01-20T16:01:53.429Z,15.00
2019-01-20T16:04:24.199Z,13.70
2019-01-20T16:06:53.751Z,14.70
2019-01-20T16:09:23.195Z,11.97
2019-01-20T16:11:52.647Z,14.03
2019-01-20T16:14:22.091Z,14.40
2019-01-20T16:16:51.846Z,16.40
2019-01-20T16:19:21.284Z,16.33
2019-01-20T16:21:50.761Z,14.27
2019-01-20T16:24:20.191Z,15.63
2019-01-20T16:26:49.830Z,15.33
2019-01-20T16:29:19.377Z,16.43
2019-01-20T16:31:48.834Z,15.80
2019-01-20T16:34:19.177Z,13.07
2019-01-20T16:36:48.709Z,14.23
2019-01-20T16:39:19.791Z,16.33
2019-01-20T16:41:49.270Z,14.47
2019-01-20T16:44:18.698Z,16.60
2019-01-20T16:46:48.206Z,16.87
2019-01-20T16:49:17.640Z,15.17
2019-01-20T16:51:47.073Z,16.40
2019-01-20T16:54:18.885Z,17.63
2019-01-20T16:56:48.338Z,18.87
2019-01-20T16:59:17.887Z,18.30
2019-01-20T17:01:47.362Z,14.93
2019-01-20T17:04:16.861Z,15.00
2019-01-20T17:06:47.093Z,14.47
2019-01-20T17:09:16.528Z,20.77
2019-01-20T17:11:47.630Z,16.37
2019-01-20T17:14:17.058Z,15.43
2019-01-20T17:16:48.143Z,15.70
2019-01-20T17:19:17.919Z,20.30
2019-01-20T17:21:47.462Z,19.30
2019-01-20T17:24:17.008Z,15.87
2019-01-20T17:26:46.534Z,18.27
2019-01-20T17:29:17.674Z,17.83
2019-01-20T17:31:47.108Z,18.03
2019-01-20T17:34:16.571Z,21.70
2019-01-20T17:36:59.204Z,20.10
2019-01-20T17:39:28.642Z,22.70
2019-01-20T17:41:58.072Z,22.33
2019-01-20T17:44:27.545Z,18.57
2019-01-20T17:46:56.966Z,18.30
2019-01-20T17:49:26.418Z,24.87
2019-01-20T17:51:55.883Z,22.40
2019-01-20T17:54:25.344Z,20.77
2019-01-20T17:56:54.812Z,23.27
2019-01-20T17:59:24.240Z,23.97
2019-01-20T18:01:53.647Z,28.40
2019-01-20T18:04:23.105Z,19.63
2019-01-20T18:06:52.564Z,19.87
2019-01-20T18:09:21.995Z,23.33
2019-01-20T18:11:53.000Z,23.07
2019-01-20T18:14:22.481Z,21.43
2019-01-20T18:16:53.965Z,23.93
2019-01-20T18:19:26.554Z,29.47
2019-01-20T18:21:56.004Z,24.53
2019-01-20T18:24:44.802Z,19.30
2019-01-20T18:27:14.330Z,23.60
2019-01-20T18:29:43.790Z,22.60
2019-01-20T18:32:13.217Z,24.23
2019-01-20T18:34:42.655Z,27.23
2019-01-20T18:37:12.104Z,28.90
2019-01-20T18:39:41.526Z,28.47
2019-01-20T18:42:11.040Z,31.67
2019-01-20T18:44:40.542Z,26.53
2019-01-20T18:47:10.065Z,24.73
2019-01-20T18:49:39.537Z,26.03
2019-01-20T18:52:14.693Z,29.33
2019-01-20T18:54:49.051Z,26.43
2019-01-20T18:57:20.199Z,23.97
2019-01-20T18:59:49.747Z,23.27
2019-01-20T19:02:19.166Z,24.03
2019-01-20T19:05:01.305Z,21.97
2019-01-20T19:07:30.745Z,21.00
2019-01-20T19:10:22.606Z,19.93
2019-01-20T19:12:52.020Z,20.33
2019-01-20T19:15:40.888Z,18.40
2019-01-20T19:18:22.948Z,18.37
2019-01-20T19:20:57.977Z,22.63
2019-01-20T19:23:27.424Z,18.93
2019-01-20T19:25:56.861Z,17.50
2019-01-20T19:28:26.295Z,18.07
2019-01-20T19:30:55.747Z,19.37
2019-01-20T19:33:25.236Z,18.07
2019-01-20T19:35:54.674Z,17.70
2019-01-20T19:38:24.123Z,18.30
2019-01-20T19:41:13.111Z,17.50
2019-01-20T19:43:42.588Z,17.90
2019-01-20T19:46:16.179Z,19.67
2019-01-20T19:48:43.207Z,18.73
2019-01-20T19:51:25.676Z,19.73
2019-01-20T19:53:55.205Z,17.83
2019-01-20T19:56:24.631Z,19.27
2019-01-20T19:58:54.059Z,20.23
2019-01-20T20:01:30.589Z,18.97
2019-01-20T20:03:58.335Z,19.77
2019-01-20T20:06:27.806Z,18.40
2019-01-20T20:08:57.240Z,15.90
2019-01-20T20:11:26.655Z,16.73
2019-01-20T20:13:56.090Z,16.00
2019-01-20T20:16:44.975Z,17.27
2019-01-20T20:19:27.686Z,17.77
2019-01-20T20:21:57.653Z,19.77
2019-01-20T20:24:27.102Z,16.30
2019-01-20T20:26:56.521Z,18.33
2019-01-20T20:29:25.966Z,17.47
2019-01-20T20:31:55.421Z,22.47
2019-01-20T20:34:24.845Z,20.90
2019-01-20T20:37:18.438Z,18.27
2019-01-20T20:39:47.862Z,20.30
2019-01-20T20:42:17.282Z,24.07
2019-01-20T20:44:46.809Z,24.63
2019-01-20T20:47:40.553Z,23.77
2019-01-20T20:50:12.576Z,21.80
2019-01-20T20:52:46.187Z,25.20
2019-01-20T20:55:26.425Z,23.03
2019-01-20T20:57:55.868Z,28.67
2019-01-20T21:00:38.528Z,25.97
2019-01-20T21:03:10.773Z,26.10
2019-01-20T21:05:40.265Z,23.67
2019-01-20T21:08:09.773Z,26.47
2019-01-20T21:10:39.213Z,32.23
2019-01-20T21:13:08.624Z,28.10
2019-01-20T21:15:38.126Z,26.27
2019-01-20T21:18:07.789Z,27.43
2019-01-20T21:20:37.468Z,30.00
2019-01-20T21:23:12.035Z,27.00
2019-01-20T21:25:38.157Z,29.20
2019-01-20T21:28:07.604Z,30.53
2019-01-20T21:30:37.028Z,30.87
2019-01-20T21:33:06.462Z,31.60
2019-01-20T21:35:35.955Z,30.00
2019-01-20T21:38:06.902Z,29.40
2019-01-20T21:40:36.476Z,34.60
2019-01-20T21:43:05.998Z,30.67
2019-01-20T21:45:35.433Z,31.93
2019-01-20T21:48:04.860Z,30.37
2019-01-20T21:50:34.275Z,30.37
2019-01-20T21:53:03.713Z,34.17
2019-01-20T21:55:33.221Z,31.57
2019-01-20T21:58:02.772Z,28.93
2019-01-20T22:00:32.180Z,30.87
2019-01-20T22:03:14.607Z,26.37
2019-01-20T22:05:44.046Z,32.60
2019-01-20T22:08:30.953Z,32.77
2019-01-20T22:11:00.373Z,33.07
2019-01-20T22:13:29.813Z,37.37
2019-01-20T22:16:18.638Z,31.90
2019-01-20T22:18:48.138Z,33.03
2019-01-20T22:21:17.645Z,34.77
2019-01-20T22:23:47.101Z,30.93
2019-01-20T22:26:16.542Z,32.30
2019-01-20T22:28:59.073Z,36.20
2019-01-20T22:31:28.558Z,29.40
2019-01-20T22:33:57.966Z,29.23
2019-01-20T22:36:27.835Z,28.30
2019-01-20T22:39:16.693Z,29.37
2019-01-20T22:41:46.282Z,24.77
2019-01-20T22:44:15.759Z,26.30
2019-01-20T22:46:45.238Z,28.37
2019-01-20T22:49:27.342Z,27.47
2019-01-20T22:51:56.765Z,26.20
2019-01-20T22:54:39.128Z,27.03
2019-01-20T22:57:08.592Z,26.37
2019-01-20T22:59:38.179Z,26.13
2019-01-20T23:02:07.637Z,25.33
2019-01-20T23:04:37.056Z,26.40
2019-01-20T23:07:06.666Z,28.23
2019-01-20T23:09:36.166Z,29.40
2019-01-20T23:12:05.721Z,24.80
2019-01-20T23:14:35.169Z,23.57
2019-01-20T23:17:07.857Z,25.90
2019-01-20T23:19:36.635Z,26.87
2019-01-20T23:22:06.094Z,24.57
2019-01-20T23:24:36.791Z,25.63
2019-01-20T23:27:19.582Z,23.23
2019-01-20T23:29:49.101Z,29.80
2019-01-20T23:32:19.857Z,30.47
2019-01-20T23:34:49.367Z,25.17
2019-01-20T23:37:18.797Z,23.83
2019-01-20T23:39:48.277Z,27.93
2019-01-20T23:42:17.714Z,30.47
2019-01-20T23:44:47.167Z,28.77
2019-01-20T23:47:16.618Z,27.70
2019-01-20T23:49:46.605Z,30.33
2019-01-20T23:52:16.067Z,28.77
2019-01-20T23:54:45.885Z,29.10
2019-01-20T23:57:18.391Z,31.93
2019-01-20T23:59:51.494Z,37.37
